createdAt,value
2022-10-17T00:00:42.045Z,80.87
2022-10-17T00:03:09.550Z,80.80
2022-10-17T00:05:44.867Z,80.36
2022-10-17T00:08:12.792Z,80.63
2022-10-17T00:10:39.949Z,80.78
2022-10-17T00:13:07.494Z,80.58
2022-10-17T00:15:34.616Z,80.52
2022-10-17T00:18:01.785Z,80.79
2022-10-17T00:20:30.561Z,80.36
2022-10-17T00:22:57.617Z,80.76
2022-10-17T00:25:24.632Z,80.58
2022-10-17T00:27:51.738Z,80.90
2022-10-17T00:30:18.832Z,80.51
2022-10-17T00:32:45.826Z,80.79
2022-10-17T00:35:12.722Z,80.36
2022-10-17T00:37:39.800Z,80.62
2022-10-17T00:40:07.606Z,80.89
2022-10-17T00:42:34.610Z,80.32
2022-10-17T00:45:20.086Z,80.85
2022-10-17T00:47:49.304Z,80.40
2022-10-17T00:50:16.241Z,80.67
2022-10-17T00:52:43.406Z,80.91
2022-10-17T00:55:30.606Z,80.62
2022-10-17T00:58:00.080Z,80.76
2022-10-17T01:03:07.922Z,80.71
2022-10-17T01:05:34.837Z,80.60
2022-10-17T01:08:01.985Z,80.72
2022-10-17T01:10:33.474Z,80.40
2022-10-17T01:13:20.574Z,80.45
2022-10-17T01:15:56.037Z,80.38
2022-10-17T01:18:38.494Z,80.57
2022-10-17T01:21:24.815Z,80.78
2022-10-17T01:24:22.754Z,80.75
2022-10-17T01:27:03.218Z,80.58
2022-10-17T01:30:07.680Z,80.82
2022-10-17T01:32:40.088Z,80.76
2022-10-17T01:35:24.293Z,80.72
2022-10-17T01:38:07.081Z,80.52
2022-10-17T01:40:56.559Z,80.81
2022-10-17T01:43:45.438Z,80.74
2022-10-17T01:46:25.207Z,80.71
2022-10-17T01:48:52.156Z,80.63
2022-10-17T01:51:39.245Z,80.97
2022-10-17T01:54:33.370Z,80.70
2022-10-17T01:57:01.887Z,80.73
2022-10-17T01:59:47.954Z,80.73
2022-10-17T02:02:14.842Z,80.93
2022-10-17T02:04:42.212Z,80.76
2022-10-17T02:07:10.368Z,81.15
2022-10-17T02:09:37.489Z,81.02
2022-10-17T02:12:26.980Z,81.23
2022-10-17T02:15:20.992Z,81.14
2022-10-17T02:18:07.668Z,80.96
2022-10-17T02:20:41.270Z,81.24
2022-10-17T02:23:08.162Z,81.24
2022-10-17T02:25:42.401Z,81.29
2022-10-17T02:28:21.082Z,81.27
2022-10-17T02:31:17.301Z,81.67
2022-10-17T02:33:47.350Z,81.39
2022-10-17T02:36:20.416Z,81.31
2022-10-17T02:38:47.420Z,81.31
2022-10-17T02:41:16.574Z,81.64
2022-10-17T02:43:45.638Z,81.62
2022-10-17T02:46:20.801Z,81.73
2022-10-17T02:48:55.760Z,81.64
2022-10-17T02:51:37.201Z,81.78
2022-10-17T02:54:25.453Z,81.54
2022-10-17T02:56:55.326Z,82.03
2022-10-17T02:59:23.683Z,82.20
2022-10-17T03:01:51.999Z,82.10
2022-10-17T03:04:19.136Z,81.83
2022-10-17T03:06:47.386Z,82.22
2022-10-17T03:09:14.665Z,82.36
2022-10-17T03:11:41.818Z,82.60
2022-10-17T03:14:08.813Z,82.70
2022-10-17T03:16:35.880Z,82.75
2022-10-17T03:19:03.095Z,82.74
2022-10-17T03:21:30.133Z,83.09
2022-10-17T03:23:57.092Z,83.21
2022-10-17T03:26:25.962Z,83.70
2022-10-17T03:28:56.263Z,83.44
2022-10-17T03:31:26.258Z,83.92
2022-10-17T03:33:55.769Z,84.19
2022-10-17T03:36:24.561Z,84.33
2022-10-17T03:38:55.184Z,84.45
2022-10-17T03:41:22.159Z,84.55
2022-10-17T03:43:49.085Z,84.60
2022-10-17T03:49:03.154Z,84.56
2022-10-17T03:51:30.257Z,84.97
2022-10-17T03:53:57.145Z,85.05
2022-10-17T03:56:25.372Z,84.46
2022-10-17T03:58:52.831Z,85.03
2022-10-17T04:01:24.745Z,85.11
2022-10-17T04:03:56.174Z,85.27
2022-10-17T04:06:23.880Z,85.42
2022-10-17T04:08:50.810Z,85.05
2022-10-17T04:11:20.317Z,85.45
2022-10-17T04:13:47.455Z,85.40
2022-10-17T04:16:16.751Z,85.75
2022-10-17T04:18:44.179Z,85.64
2022-10-17T04:21:11.571Z,85.72
2022-10-17T04:23:39.080Z,85.53
2022-10-17T04:26:06.803Z,85.53
2022-10-17T04:28:33.974Z,85.68
2022-10-17T04:31:04.277Z,85.85
2022-10-17T04:33:31.984Z,85.63
2022-10-17T04:36:03.534Z,85.85
2022-10-17T04:38:30.714Z,85.44
2022-10-17T04:41:03.395Z,85.35
2022-10-17T04:43:31.467Z,85.49
2022-10-17T04:45:59.305Z,85.29
2022-10-17T04:48:26.273Z,85.04
2022-10-17T04:51:07.194Z,85.47
2022-10-17T04:53:35.501Z,85.23
2022-10-17T04:56:07.274Z,85.53
2022-10-17T04:58:34.154Z,85.06
2022-10-17T05:01:05.643Z,85.39
2022-10-17T05:03:32.661Z,85.43
2022-10-17T05:05:59.618Z,85.53
2022-10-17T05:08:26.612Z,85.56
2022-10-17T05:10:53.826Z,85.30
2022-10-17T05:13:20.794Z,85.65
2022-10-17T05:15:47.766Z,85.68
2022-10-17T05:18:14.647Z,85.49
2022-10-17T05:20:41.664Z,85.83
2022-10-17T05:23:08.562Z,85.78
2022-10-17T05:25:35.448Z,86.03
2022-10-17T05:28:02.448Z,86.23
2022-10-17T05:30:31.442Z,86.60
2022-10-17T05:33:00.516Z,86.45
2022-10-17T05:35:27.596Z,86.68
2022-10-17T05:37:54.810Z,87.13
2022-10-17T05:40:24.367Z,86.84
2022-10-17T05:42:51.536Z,87.33
2022-10-17T05:45:18.786Z,87.03
2022-10-17T05:47:46.000Z,87.16
2022-10-17T05:50:13.085Z,87.32
2022-10-17T05:52:40.566Z,87.58
2022-10-17T05:55:09.233Z,87.42
2022-10-17T05:57:36.198Z,87.75
2022-10-17T06:00:04.919Z,87.75
2022-10-17T06:02:32.483Z,87.70
2022-10-17T06:04:59.894Z,87.96
2022-10-17T06:07:26.773Z,88.20
2022-10-17T06:09:53.736Z,87.94
2022-10-17T06:12:20.793Z,88.04
2022-10-17T06:14:47.717Z,88.10
2022-10-17T06:17:16.270Z,88.03
2022-10-17T06:19:45.082Z,87.90
2022-10-17T06:22:12.315Z,88.60
2022-10-17T06:24:39.207Z,88.09
2022-10-17T06:27:10.947Z,88.27
2022-10-17T06:29:39.347Z,88.31
2022-10-17T06:32:08.697Z,88.31
2022-10-17T06:34:38.292Z,88.41
2022-10-17T06:37:05.263Z,88.34
2022-10-17T06:39:34.038Z,88.42
2022-10-17T06:42:01.731Z,88.16
2022-10-17T06:44:31.705Z,88.87
2022-10-17T06:46:59.605Z,88.83
2022-10-17T06:49:27.248Z,88.83
2022-10-17T06:51:54.849Z,88.92
2022-10-17T06:54:21.815Z,88.93
2022-10-17T06:56:48.812Z,88.38
2022-10-17T06:59:15.907Z,88.25
2022-10-17T07:01:46.126Z,88.56
2022-10-17T07:04:14.456Z,88.36
2022-10-17T07:06:41.435Z,88.26
2022-10-17T07:09:08.702Z,88.69
2022-10-17T07:11:35.707Z,88.81
2022-10-17T07:14:02.665Z,88.36
2022-10-17T07:16:29.699Z,88.93
2022-10-17T07:18:56.624Z,88.33
2022-10-17T07:21:23.725Z,88.87
2022-10-17T07:23:50.753Z,88.80
2022-10-17T07:26:18.781Z,88.46
2022-10-17T07:28:46.691Z,88.76
2022-10-17T07:31:16.146Z,88.91
2022-10-17T07:33:44.302Z,88.44
2022-10-17T07:36:11.775Z,88.40
2022-10-17T07:38:39.123Z,88.78
2022-10-17T07:41:07.394Z,88.73
2022-10-17T07:43:34.607Z,88.89
2022-10-17T07:46:02.098Z,88.58
2022-10-17T07:48:29.198Z,88.44
2022-10-17T07:50:56.142Z,88.90
2022-10-17T07:53:23.464Z,88.55
2022-10-17T07:55:51.657Z,88.37
2022-10-17T07:58:18.895Z,88.66
2022-10-17T08:00:48.873Z,88.28
2022-10-17T08:03:16.116Z,88.29
2022-10-17T08:05:43.153Z,88.52
2022-10-17T08:08:10.065Z,88.34
2022-10-17T08:10:37.118Z,88.07
2022-10-17T08:13:04.045Z,88.59
2022-10-17T08:15:32.194Z,88.17
2022-10-17T08:17:59.752Z,88.16
2022-10-17T08:20:26.757Z,88.18
2022-10-17T08:22:54.845Z,88.30
2022-10-17T08:25:22.137Z,88.47
2022-10-17T08:27:50.154Z,88.01
2022-10-17T08:30:17.561Z,88.24
2022-10-17T08:32:44.540Z,88.33
2022-10-17T08:35:11.578Z,88.10
2022-10-17T08:37:38.460Z,88.38
2022-10-17T08:40:06.128Z,88.04
2022-10-17T08:42:55.064Z,87.86
2022-10-17T08:45:30.694Z,88.43
2022-10-17T08:48:02.936Z,88.31
2022-10-17T08:50:37.491Z,88.39
2022-10-17T08:53:16.394Z,87.73
2022-10-17T08:55:50.793Z,88.38
2022-10-17T08:58:23.915Z,88.38
2022-10-17T09:00:56.333Z,88.71
2022-10-17T09:03:32.757Z,88.72
2022-10-17T09:06:13.871Z,89.11
2022-10-17T09:08:53.710Z,88.82
2022-10-17T09:11:38.936Z,88.76
2022-10-17T09:14:18.005Z,89.29
2022-10-17T09:16:53.862Z,88.81
2022-10-17T09:19:31.214Z,89.03
2022-10-17T09:22:04.124Z,89.14
2022-10-17T09:24:45.433Z,89.30
2022-10-17T09:27:44.968Z,89.60
2022-10-17T09:30:43.541Z,89.57
2022-10-17T09:33:34.943Z,89.76
2022-10-17T09:36:05.573Z,89.76
2022-10-17T09:38:41.798Z,89.86
2022-10-17T09:41:46.872Z,89.46
2022-10-17T09:44:22.346Z,89.66
2022-10-17T09:47:27.036Z,89.70
2022-10-17T09:49:54.242Z,89.73
2022-10-17T09:52:41.145Z,90.16
2022-10-17T09:55:36.949Z,89.89
2022-10-17T09:58:06.103Z,90.27
2022-10-17T10:00:39.022Z,90.33
2022-10-17T10:03:23.997Z,89.75
2022-10-17T10:06:04.460Z,90.15
2022-10-17T10:08:37.171Z,90.32
2022-10-17T10:11:13.383Z,90.31
2022-10-17T10:13:41.054Z,90.36
2022-10-17T10:16:20.905Z,90.05
2022-10-17T10:18:50.816Z,90.11
2022-10-17T10:21:23.544Z,90.33
2022-10-17T10:23:59.733Z,90.65
2022-10-17T10:26:35.642Z,90.44
2022-10-17T10:29:04.995Z,90.30
2022-10-17T10:31:39.496Z,90.52
2022-10-17T10:34:19.909Z,90.55
2022-10-17T10:36:59.130Z,90.37
2022-10-17T10:39:33.508Z,90.64
2022-10-17T10:42:01.832Z,90.61
2022-10-17T10:44:30.467Z,90.78
2022-10-17T10:47:15.619Z,91.02
2022-10-17T10:49:42.726Z,90.89
2022-10-17T10:52:25.425Z,90.49
2022-10-17T10:55:04.392Z,91.03
2022-10-17T10:57:32.401Z,90.68
2022-10-17T11:00:12.486Z,90.85
2022-10-17T11:03:01.211Z,90.92
2022-10-17T11:05:40.108Z,90.83
2022-10-17T11:08:32.891Z,90.95
2022-10-17T11:11:18.077Z,91.15
2022-10-17T11:14:04.247Z,91.17
2022-10-17T11:16:34.049Z,91.61
2022-10-17T11:19:35.894Z,91.46
2022-10-17T11:22:08.709Z,91.66
2022-10-17T11:24:59.885Z,91.24
2022-10-17T11:27:29.016Z,91.11
2022-10-17T11:29:56.431Z,91.38
2022-10-17T11:32:28.815Z,91.44
2022-10-17T11:35:03.525Z,91.10
2022-10-17T11:37:35.402Z,91.54
2022-10-17T11:40:08.525Z,91.78
2022-10-17T11:42:41.782Z,91.22
2022-10-17T11:45:12.007Z,91.17
2022-10-17T11:47:45.400Z,91.98
2022-10-17T11:53:17.464Z,91.58
2022-10-17T11:55:44.368Z,91.44
2022-10-17T11:58:24.440Z,91.50
2022-10-17T12:01:06.334Z,91.34
2022-10-17T12:03:48.676Z,91.51
2022-10-17T12:06:51.209Z,91.45
2022-10-17T12:09:43.439Z,91.28
2022-10-17T12:12:10.412Z,91.16
2022-10-17T12:14:42.401Z,91.67
2022-10-17T12:17:28.543Z,91.79
2022-10-17T12:20:26.045Z,91.77
2022-10-17T12:22:55.116Z,91.40
2022-10-17T12:25:24.547Z,91.46
2022-10-17T12:27:51.808Z,91.48
2022-10-17T12:30:25.474Z,91.70
2022-10-17T12:33:06.589Z,91.19
2022-10-17T12:35:36.275Z,91.11
2022-10-17T12:38:19.919Z,91.39
2022-10-17T12:40:50.192Z,91.48
2022-10-17T12:43:17.100Z,90.79
2022-10-17T12:45:55.047Z,91.01
2022-10-17T12:48:34.163Z,90.75
2022-10-17T12:54:12.858Z,90.78
2022-10-17T12:56:42.368Z,90.60
2022-10-17T12:59:16.149Z,90.68
2022-10-17T13:01:46.343Z,90.58
2022-10-17T13:04:13.420Z,90.85
2022-10-17T13:06:54.536Z,90.17
2022-10-17T13:09:29.756Z,90.36
2022-10-17T13:11:57.988Z,90.89
2022-10-17T13:14:25.531Z,90.84
2022-10-17T13:16:55.050Z,90.41
2022-10-17T13:19:40.601Z,90.99
2022-10-17T13:22:32.903Z,90.62
2022-10-17T13:25:09.469Z,90.71
2022-10-17T13:27:36.947Z,90.56
2022-10-17T13:30:32.155Z,90.75
2022-10-17T13:33:00.140Z,90.63
2022-10-17T13:38:28.423Z,90.36
2022-10-17T13:41:05.876Z,90.52
2022-10-17T13:43:42.593Z,90.58
2022-10-17T13:46:37.202Z,90.53
2022-10-17T13:49:18.910Z,90.32
2022-10-17T13:51:47.369Z,90.92
2022-10-17T13:54:32.146Z,90.40
2022-10-17T13:56:59.664Z,90.72
2022-10-17T13:59:30.842Z,90.40
2022-10-17T14:01:57.908Z,91.11
2022-10-17T14:04:25.075Z,90.11
2022-10-17T14:06:52.542Z,90.83
2022-10-17T14:09:27.890Z,90.82
2022-10-17T14:12:04.043Z,90.98
2022-10-17T14:14:41.634Z,90.99
2022-10-17T14:17:22.965Z,90.78
2022-10-17T14:20:40.375Z,90.98
2022-10-17T14:23:17.573Z,90.73
2022-10-17T14:25:40.923Z,90.87
2022-10-17T14:28:09.518Z,90.92
2022-10-17T14:30:55.637Z,91.09
2022-10-17T14:33:30.969Z,90.99
2022-10-17T14:35:59.387Z,90.71
2022-10-17T14:38:26.465Z,91.23
2022-10-17T14:41:04.640Z,90.79
2022-10-17T14:43:41.395Z,91.36
2022-10-17T14:46:14.200Z,91.25
2022-10-17T14:48:41.551Z,91.31
2022-10-17T14:51:18.789Z,90.95
2022-10-17T14:54:05.489Z,91.16
2022-10-17T14:56:39.557Z,91.32
2022-10-17T14:59:11.136Z,91.51
2022-10-17T15:01:38.943Z,91.39
2022-10-17T15:04:06.090Z,91.40
2022-10-17T15:06:34.218Z,91.53
2022-10-17T15:09:01.407Z,90.95
2022-10-17T15:11:28.935Z,91.44
2022-10-17T15:13:56.237Z,91.32
2022-10-17T15:16:25.267Z,91.43
2022-10-17T15:18:52.926Z,91.12
2022-10-17T15:21:26.644Z,90.86
2022-10-17T15:24:01.983Z,90.87
2022-10-17T15:26:31.831Z,91.43
2022-10-17T15:28:58.810Z,90.86
2022-10-17T15:31:26.662Z,91.39
2022-10-17T15:33:53.916Z,90.62
2022-10-17T15:36:31.961Z,90.81
2022-10-17T15:39:00.649Z,90.97
2022-10-17T15:41:29.611Z,90.79
2022-10-17T15:43:56.844Z,90.66
2022-10-17T15:46:32.776Z,91.18
2022-10-17T15:49:10.201Z,90.96
2022-10-17T15:51:37.394Z,90.67
2022-10-17T15:54:05.784Z,91.02
2022-10-17T15:56:38.127Z,90.31
2022-10-17T15:59:16.160Z,90.50
2022-10-17T16:01:43.153Z,90.12
2022-10-17T16:04:15.264Z,90.94
2022-10-17T16:06:42.958Z,90.91
2022-10-17T16:09:10.218Z,90.25
2022-10-17T16:11:44.132Z,90.39
2022-10-17T16:14:15.925Z,89.97
2022-10-17T16:16:42.926Z,90.72
2022-10-17T16:19:09.845Z,90.18
2022-10-17T16:21:38.404Z,90.40
2022-10-17T16:24:05.894Z,90.72
2022-10-17T16:26:32.865Z,90.77
2022-10-17T16:29:03.154Z,90.37
2022-10-17T16:31:37.961Z,90.47
2022-10-17T16:34:06.457Z,90.11
2022-10-17T16:36:33.431Z,90.43
2022-10-17T16:39:00.457Z,90.38
2022-10-17T16:41:36.015Z,90.58
2022-10-17T16:44:06.015Z,90.53
2022-10-17T16:46:33.487Z,90.45
2022-10-17T16:49:00.598Z,90.54
2022-10-17T16:51:29.287Z,90.41
2022-10-17T16:53:57.117Z,90.76
2022-10-17T16:56:25.077Z,90.61
2022-10-17T16:58:53.057Z,90.02
2022-10-17T17:01:23.412Z,90.08
2022-10-17T17:03:50.719Z,90.67
2022-10-17T17:06:20.901Z,90.19
2022-10-17T17:08:47.918Z,90.34
2022-10-17T17:11:17.794Z,90.65
2022-10-17T17:13:46.882Z,90.00
2022-10-17T17:16:15.903Z,90.00
2022-10-17T17:18:43.066Z,90.46
2022-10-17T17:21:10.621Z,90.08
2022-10-17T17:23:39.348Z,90.02
2022-10-17T17:26:17.494Z,90.06
2022-10-17T17:28:44.604Z,90.62
2022-10-17T17:31:14.778Z,90.51
2022-10-17T17:33:42.382Z,90.47
2022-10-17T17:36:11.274Z,90.59
2022-10-17T17:38:38.171Z,90.06
2022-10-17T17:41:05.255Z,90.22
2022-10-17T17:43:32.136Z,90.33
2022-10-17T17:46:01.678Z,90.70
2022-10-17T17:48:29.070Z,90.81
2022-10-17T17:50:55.969Z,90.39
2022-10-17T17:53:23.508Z,90.49
2022-10-17T17:56:07.517Z,90.91
2022-10-17T17:58:35.027Z,90.30
2022-10-17T18:01:02.400Z,90.72
2022-10-17T18:03:29.446Z,90.80
2022-10-17T18:05:56.355Z,91.04
2022-10-17T18:08:23.540Z,90.67
2022-10-17T18:10:54.751Z,90.48
2022-10-17T18:13:21.797Z,90.78
2022-10-17T18:15:51.860Z,90.61
2022-10-17T18:18:19.235Z,91.03
2022-10-17T18:20:46.190Z,90.90
2022-10-17T18:23:13.201Z,90.82
2022-10-17T18:25:40.126Z,90.83
2022-10-17T18:28:09.055Z,90.97
2022-10-17T18:30:39.226Z,90.86
2022-10-17T18:33:06.130Z,90.48
2022-10-17T18:35:33.938Z,90.56
2022-10-17T18:38:00.841Z,90.87
2022-10-17T18:40:28.340Z,90.60
2022-10-17T18:42:55.252Z,90.97
2022-10-17T18:45:22.487Z,90.96
2022-10-17T18:47:52.802Z,90.68
2022-10-17T18:50:25.820Z,90.30
2022-10-17T18:52:52.936Z,90.53
2022-10-17T18:55:23.062Z,90.70
2022-10-17T18:57:50.308Z,90.80
2022-10-17T19:00:17.532Z,91.10
2022-10-17T19:02:44.641Z,90.35
2022-10-17T19:05:11.531Z,90.26
2022-10-17T19:07:38.535Z,90.42
2022-10-17T19:10:05.779Z,90.46
2022-10-17T19:12:32.704Z,90.47
2022-10-17T19:14:59.735Z,90.58
2022-10-17T19:17:26.989Z,90.57
2022-10-17T19:19:55.134Z,90.22
2022-10-17T19:22:22.050Z,90.24
2022-10-17T19:24:49.173Z,90.30
2022-10-17T19:27:16.077Z,90.21
2022-10-17T19:29:44.117Z,89.84
2022-10-17T19:32:15.729Z,90.15
2022-10-17T19:34:45.215Z,89.79
2022-10-17T19:37:12.111Z,90.26
2022-10-17T19:39:39.151Z,90.13
2022-10-17T19:42:07.077Z,89.96
2022-10-17T19:44:34.761Z,89.72
2022-10-17T19:47:01.812Z,89.96
2022-10-17T19:49:28.691Z,89.71
2022-10-17T19:51:55.612Z,89.57
2022-10-17T19:54:23.711Z,89.88
2022-10-17T19:56:50.576Z,89.78
2022-10-17T19:59:17.601Z,89.54
2022-10-17T20:01:44.804Z,89.77
2022-10-17T20:04:12.118Z,89.84
2022-10-17T20:06:40.122Z,89.22
2022-10-17T20:09:08.798Z,89.31
2022-10-17T20:11:37.985Z,89.40
2022-10-17T20:14:05.953Z,89.42
2022-10-17T20:16:34.835Z,89.35
2022-10-17T20:19:05.010Z,89.53
2022-10-17T20:21:35.152Z,89.41
2022-10-17T20:24:02.944Z,89.21
2022-10-17T20:26:38.210Z,89.18
2022-10-17T20:29:17.764Z,88.92
2022-10-17T20:31:45.710Z,88.79
2022-10-17T20:34:14.651Z,88.83
2022-10-17T20:36:41.777Z,89.06
2022-10-17T20:39:10.822Z,89.08
2022-10-17T20:41:37.747Z,89.13
2022-10-17T20:44:04.965Z,89.42
2022-10-17T20:46:44.750Z,88.91
2022-10-17T20:49:25.346Z,88.91
2022-10-17T20:51:52.810Z,88.97
2022-10-17T20:54:23.072Z,89.05
2022-10-17T20:56:50.483Z,89.08
2022-10-17T20:59:17.934Z,89.08
2022-10-17T21:01:45.415Z,89.39
2022-10-17T21:04:45.302Z,89.39
2022-10-17T21:06:59.722Z,88.96
2022-10-17T21:09:26.659Z,88.93
2022-10-17T21:11:55.740Z,88.76
2022-10-17T21:14:23.882Z,89.24
2022-10-17T21:16:52.481Z,89.19
2022-10-17T21:19:25.087Z,89.11
2022-10-17T21:21:52.158Z,89.11
2022-10-17T21:24:20.908Z,89.08
2022-10-17T21:26:55.645Z,88.97
2022-10-17T21:29:23.661Z,88.92
2022-10-17T21:31:50.593Z,89.14
2022-10-17T21:34:20.926Z,88.78
2022-10-17T21:36:57.342Z,88.77
2022-10-17T21:39:27.029Z,88.78
2022-10-17T21:41:54.296Z,88.84
2022-10-17T21:44:23.679Z,88.63
2022-10-17T21:46:51.009Z,88.54
2022-10-17T21:49:20.043Z,88.70
2022-10-17T21:51:50.254Z,88.61
2022-10-17T21:54:17.884Z,88.82
2022-10-17T21:56:45.147Z,88.60
2022-10-17T21:59:12.028Z,88.41
2022-10-17T22:01:43.473Z,88.44
2022-10-17T22:04:18.839Z,88.69
2022-10-17T22:06:47.301Z,88.75
2022-10-17T22:09:24.910Z,88.37
2022-10-17T22:11:54.966Z,88.73
2022-10-17T22:14:29.788Z,88.53
2022-10-17T22:16:56.705Z,88.05
2022-10-17T22:19:26.232Z,88.27
2022-10-17T22:21:53.829Z,88.62
2022-10-17T22:26:48.908Z,88.52
2022-10-17T22:29:15.991Z,88.21
2022-10-17T22:31:43.032Z,88.52
2022-10-17T22:34:11.775Z,88.20
2022-10-17T22:36:38.885Z,87.97
2022-10-17T22:39:05.835Z,87.91
2022-10-17T22:41:32.935Z,87.74
2022-10-17T22:43:59.856Z,88.18
2022-10-17T22:46:26.857Z,88.18
2022-10-17T22:48:53.805Z,88.13
2022-10-17T22:51:20.817Z,88.17
2022-10-17T22:53:47.985Z,88.11
2022-10-17T22:56:16.865Z,88.10
2022-10-17T22:58:44.140Z,88.00
2022-10-17T23:01:17.672Z,87.94
2022-10-17T23:03:45.369Z,88.23
2022-10-17T23:06:12.693Z,87.76
2022-10-17T23:08:39.910Z,87.68
2022-10-17T23:11:07.274Z,87.88
2022-10-17T23:13:34.321Z,87.78
2022-10-17T23:16:01.325Z,88.13
2022-10-17T23:18:28.763Z,88.08
2022-10-17T23:20:55.951Z,87.85
2022-10-17T23:23:24.183Z,87.78
2022-10-17T23:25:51.888Z,87.61
2022-10-17T23:28:18.891Z,87.65
2022-10-17T23:30:45.857Z,87.45
2022-10-17T23:33:13.321Z,87.87
2022-10-17T23:35:40.542Z,87.52
2022-10-17T23:38:07.534Z,87.60
2022-10-17T23:40:35.637Z,87.59
2022-10-17T23:43:03.532Z,87.68
2022-10-17T23:45:34.645Z,87.49
2022-10-17T23:48:05.164Z,87.67
2022-10-17T23:50:32.066Z,87.46
2022-10-17T23:52:58.960Z,87.35
2022-10-17T23:55:25.955Z,87.32
2022-10-17T23:57:53.668Z,87.58
